createdAt,value
2024-04-12T00:02:16.292Z,97766.19
2024-04-12T00:07:23.549Z,97772.22
2024-04-12T00:12:30.644Z,97767.66
2024-04-12T00:17:35.999Z,97755.88
2024-04-12T00:22:44.682Z,97749.78
2024-04-12T00:27:49.239Z,97743.75
2024-04-12T00:32:58.742Z,97746.84
2024-04-12T00:38:13.796Z,97733.50
2024-04-12T00:43:20.104Z,97733.88
2024-04-12T00:48:27.842Z,97735.13
2024-04-12T00:53:35.840Z,97730.88
2024-04-12T00:58:42.939Z,97732.66
2024-04-12T01:03:54.672Z,97742.72
2024-04-12T01:09:12.263Z,97744.28
2024-04-12T01:14:17.919Z,97734.34
2024-04-12T01:19:22.293Z,97726.59
2024-04-12T01:24:30.790Z,97733.78
2024-04-12T01:29:37.797Z,97728.38
2024-04-12T01:34:48.312Z,97733.47
2024-04-12T01:39:53.479Z,97736.72
2024-04-12T01:45:18.565Z,97736.19
2024-04-12T01:50:25.356Z,97723.41
2024-04-12T01:55:33.752Z,97729.84
2024-04-12T02:00:41.528Z,97725.84
2024-04-12T02:05:45.942Z,97723.91
2024-04-12T02:10:55.147Z,97714.81
2024-04-12T02:16:02.721Z,97716.09
2024-04-12T02:21:11.575Z,97712.81
2024-04-12T02:26:16.636Z,97727.06
2024-04-12T02:31:23.876Z,97720.28
2024-04-12T02:36:32.116Z,97722.22
2024-04-12T02:41:39.258Z,97718.94
2024-04-12T02:46:46.404Z,97713.19
2024-04-12T02:51:52.300Z,97713.06
2024-04-12T02:56:58.290Z,97705.81
2024-04-12T03:02:06.037Z,97709.22
2024-04-12T03:07:13.474Z,97718.47
2024-04-12T03:12:17.909Z,97719.03
2024-04-12T03:17:24.923Z,97717.91
2024-04-12T03:22:29.777Z,97722.69
2024-04-12T03:27:34.164Z,97721.03
2024-04-12T03:32:45.760Z,97726.81
2024-04-12T03:38:11.034Z,97734.88
2024-04-12T03:43:15.488Z,97725.69
2024-04-12T03:48:25.850Z,97736.81
2024-04-12T03:53:32.121Z,97735.00
2024-04-12T03:58:36.554Z,97731.38
2024-04-12T04:03:50.606Z,97734.56
2024-04-12T04:08:55.240Z,97743.31
2024-04-12T04:13:59.670Z,97738.41
2024-04-12T04:19:06.832Z,97742.69
2024-04-12T04:24:16.149Z,97732.81
2024-04-12T04:29:20.684Z,97743.69
2024-04-12T04:34:28.516Z,97737.56
2024-04-12T04:39:34.182Z,97747.78
2024-04-12T04:44:39.327Z,97744.47
2024-04-12T04:49:46.532Z,97743.81
2024-04-12T04:54:50.917Z,97749.06
2024-04-12T05:00:07.261Z,97752.22
2024-04-12T05:05:14.370Z,97744.78
2024-04-12T05:10:19.036Z,97746.59
2024-04-12T05:15:50.934Z,97759.59
2024-04-12T05:20:58.874Z,97759.44
2024-04-12T05:26:03.366Z,97755.63
2024-04-12T05:31:13.027Z,97758.28
2024-04-12T05:36:22.062Z,97756.56
2024-04-12T05:41:33.435Z,97768.94
2024-04-12T05:46:40.405Z,97776.47
2024-04-12T05:51:48.506Z,97771.16
2024-04-12T05:56:54.086Z,97765.97
2024-04-12T06:01:58.509Z,97765.06
2024-04-12T06:07:12.541Z,97768.25
2024-04-12T06:12:17.779Z,97773.31
2024-04-12T06:17:24.863Z,97771.13
2024-04-12T06:22:32.714Z,97769.53
2024-04-12T06:27:37.186Z,97763.09
2024-04-12T06:32:41.837Z,97765.84
2024-04-12T06:37:51.623Z,97756.13
2024-04-12T06:43:09.609Z,97757.53
2024-04-12T06:48:18.810Z,97759.28
2024-04-12T06:53:26.197Z,97766.75
2024-04-12T06:58:30.664Z,97759.09
2024-04-12T07:03:35.996Z,97750.41
2024-04-12T07:08:51.041Z,97750.38
2024-04-12T07:13:55.627Z,97733.66
2024-04-12T07:19:02.041Z,97726.34
2024-04-12T07:24:09.606Z,97737.84
2024-04-12T07:29:14.484Z,97745.19
2024-04-12T07:34:19.142Z,97751.25
2024-04-12T07:39:26.178Z,97755.88
2024-04-12T07:44:32.411Z,97768.44
2024-04-12T07:49:49.506Z,97777.53
2024-04-12T07:54:56.749Z,97773.72
2024-04-12T08:00:11.004Z,97776.69
2024-04-12T08:05:17.803Z,97770.28
2024-04-12T08:10:30.805Z,97770.72
2024-04-12T08:15:41.827Z,97769.34
2024-04-12T08:20:48.160Z,97772.25
2024-04-12T08:25:55.274Z,97765.47
2024-04-12T08:31:06.997Z,97766.50
2024-04-12T08:36:15.521Z,97772.22
2024-04-12T08:41:22.823Z,97770.41
2024-04-12T08:46:29.360Z,97757.22
2024-04-12T08:51:35.978Z,97757.59
2024-04-12T08:56:47.140Z,97756.13
2024-04-12T09:01:53.188Z,97756.25
2024-04-12T09:06:59.518Z,97739.75
2024-04-12T09:12:13.846Z,97741.25
2024-04-12T09:17:25.497Z,97735.47
2024-04-12T09:22:31.403Z,97738.72
2024-04-12T09:27:45.265Z,97747.78
2024-04-12T09:33:01.860Z,97746.22
2024-04-12T09:38:17.396Z,97743.25
2024-04-12T09:43:37.793Z,97738.25
2024-04-12T09:48:59.641Z,97738.50
2024-04-12T09:54:19.996Z,97729.59
2024-04-12T09:59:47.721Z,97725.81
2024-04-12T10:05:23.457Z,97734.28
2024-04-12T10:10:45.738Z,97729.97
2024-04-12T10:16:13.899Z,97722.69
2024-04-12T10:21:34.927Z,97721.56
2024-04-12T10:26:56.841Z,97712.31
2024-04-12T10:32:19.985Z,97707.78
2024-04-12T10:37:30.739Z,97704.66
2024-04-12T10:42:35.375Z,97695.41
2024-04-12T10:47:46.028Z,97690.91
2024-04-12T10:52:50.634Z,97689.25
2024-04-12T10:57:57.771Z,97681.28
2024-04-12T11:03:22.011Z,97680.72
2024-04-12T11:08:29.281Z,97665.75
2024-04-12T11:13:37.335Z,97657.81
2024-04-12T11:19:00.924Z,97656.06
2024-04-12T11:24:21.685Z,97660.97
2024-04-12T11:29:42.131Z,97649.69
2024-04-12T11:34:49.233Z,97638.19
2024-04-12T11:39:58.070Z,97640.47
2024-04-12T11:45:02.613Z,97647.28
2024-04-12T11:50:11.976Z,97643.34
2024-04-12T11:55:17.406Z,97631.19
2024-04-12T12:00:22.077Z,97635.59
2024-04-12T12:05:30.307Z,97629.00
2024-04-12T12:10:35.991Z,97611.69
2024-04-12T12:15:43.365Z,97613.94
2024-04-12T12:20:50.554Z,97608.56
2024-04-12T12:25:55.340Z,97602.94
2024-04-12T12:30:59.953Z,97591.03
2024-04-12T12:36:07.879Z,97586.84
2024-04-12T12:41:13.417Z,97578.56
2024-04-12T12:46:17.933Z,97583.16
2024-04-12T12:51:27.740Z,97575.38
2024-04-12T12:56:32.581Z,97569.25
2024-04-12T13:01:42.774Z,97556.03
2024-04-12T13:06:50.758Z,97546.94
2024-04-12T13:11:57.374Z,97537.84
2024-04-12T13:17:04.093Z,97538.97
2024-04-12T13:22:13.356Z,97536.53
2024-04-12T13:27:22.823Z,97527.53
2024-04-12T13:32:27.645Z,97520.59
2024-04-12T13:37:34.763Z,97521.81
2024-04-12T13:42:40.730Z,97531.03
2024-04-12T13:48:01.591Z,97513.50
2024-04-12T13:53:11.979Z,97507.41
2024-04-12T13:58:16.728Z,97490.44
2024-04-12T14:03:25.469Z,97487.56
2024-04-12T14:08:33.721Z,97475.75
2024-04-12T14:13:38.000Z,97483.44
2024-04-12T14:18:42.675Z,97478.38
2024-04-12T14:23:49.899Z,97471.38
2024-04-12T14:28:55.067Z,97459.97
2024-04-12T14:33:59.931Z,97472.97
2024-04-12T14:39:16.973Z,97452.72
2024-04-12T14:44:21.785Z,97458.69
2024-04-12T14:49:26.673Z,97450.63
2024-04-12T14:54:34.167Z,97442.00
2024-04-12T14:59:38.647Z,97438.22
2024-04-12T15:04:58.882Z,97442.00
2024-04-12T15:10:23.336Z,97423.91
2024-04-12T15:15:43.976Z,97426.31
2024-04-12T15:21:04.211Z,97420.38
2024-04-12T15:26:27.820Z,97426.84
2024-04-12T15:31:49.094Z,97422.00
2024-04-12T15:37:09.507Z,97420.63
2024-04-12T15:42:32.560Z,97416.41
2024-04-12T15:47:34.626Z,97414.50
2024-04-12T15:52:41.448Z,97418.28
2024-04-12T15:58:04.514Z,97409.91
2024-04-12T16:03:25.463Z,97406.41
2024-04-12T16:08:48.281Z,97411.53
2024-04-12T16:13:55.447Z,97400.91
2024-04-12T16:19:00.018Z,97399.03
2024-04-12T16:24:04.587Z,97399.25
2024-04-12T16:29:11.783Z,97400.03
2024-04-12T16:34:16.679Z,97394.63
2024-04-12T16:39:21.456Z,97390.41
2024-04-12T16:44:29.084Z,97378.69
2024-04-12T16:49:33.506Z,97376.69
2024-04-12T16:54:37.975Z,97382.88
2024-04-12T16:59:45.277Z,97393.41
2024-04-12T17:04:50.197Z,97390.38
2024-04-12T17:09:54.691Z,97382.53
2024-04-12T17:15:01.739Z,97387.94
2024-04-12T17:20:08.003Z,97389.50
2024-04-12T17:25:13.463Z,97395.31
2024-04-12T17:30:22.539Z,97391.97
2024-04-12T17:35:27.043Z,97391.59
2024-04-12T17:40:31.983Z,97392.59
2024-04-12T17:45:38.935Z,97391.44
2024-04-12T17:50:43.322Z,97397.53
2024-04-12T17:55:47.705Z,97395.81
2024-04-12T18:01:02.942Z,97399.91
2024-04-12T18:06:08.047Z,97400.28
2024-04-12T18:11:13.203Z,97409.41
2024-04-12T18:16:21.264Z,97415.13
2024-04-12T18:21:26.142Z,97409.34
2024-04-12T18:26:30.619Z,97421.44
2024-04-12T18:31:38.085Z,97428.41
2024-04-12T18:36:51.848Z,97433.78
2024-04-12T18:42:12.376Z,97434.66
2024-04-12T18:47:20.548Z,97425.53
2024-04-12T18:52:26.157Z,97428.03
2024-04-12T18:57:30.707Z,97426.81
2024-04-12T19:02:38.777Z,97425.06
2024-04-12T19:07:43.606Z,97425.09
2024-04-12T19:12:48.010Z,97430.72
2024-04-12T19:17:55.153Z,97431.81
2024-04-12T19:23:00.796Z,97447.06
2024-04-12T19:28:06.086Z,97441.69
2024-04-12T19:33:13.279Z,97444.38
2024-04-12T19:38:19.146Z,97440.63
2024-04-12T19:43:23.597Z,97449.53
2024-04-12T19:48:32.053Z,97452.50
2024-04-12T19:53:37.820Z,97442.25
2024-04-12T19:58:42.253Z,97448.63
2024-04-12T20:03:49.526Z,97452.88
2024-04-12T20:08:54.039Z,97443.25
2024-04-12T20:13:58.452Z,97454.13
2024-04-12T20:19:05.618Z,97453.63
2024-04-12T20:24:10.578Z,97452.91
2024-04-12T20:29:17.823Z,97454.53
2024-04-12T20:34:48.186Z,97457.19
2024-04-12T20:39:55.511Z,97455.28
2024-04-12T20:45:00.532Z,97453.25
2024-04-12T20:50:08.072Z,97464.25
2024-04-12T20:55:14.061Z,97458.63
2024-04-12T21:00:22.356Z,97458.47
2024-04-12T21:05:30.083Z,97457.22
2024-04-12T21:10:34.456Z,97454.00
2024-04-12T21:15:38.929Z,97454.06
2024-04-12T21:20:45.991Z,97447.59
2024-04-12T21:25:56.998Z,97447.69
2024-04-12T21:31:01.406Z,97453.91
2024-04-12T21:36:09.355Z,97442.91
2024-04-12T21:41:16.851Z,97450.13
2024-04-12T21:46:23.609Z,97443.88
2024-04-12T21:51:32.283Z,97446.81
2024-04-12T21:56:36.726Z,97450.97
2024-04-12T22:01:41.118Z,97449.34
2024-04-12T22:06:48.063Z,97437.97
2024-04-12T22:11:52.426Z,97442.69
2024-04-12T22:16:56.808Z,97450.53
2024-04-12T22:22:03.779Z,97451.94
2024-04-12T22:27:08.609Z,97443.94
2024-04-12T22:32:13.072Z,97444.19
2024-04-12T22:37:20.983Z,97447.47
2024-04-12T22:42:25.406Z,97442.38
2024-04-12T22:47:29.822Z,97435.03
2024-04-12T22:52:37.114Z,97435.25
2024-04-12T22:57:44.365Z,97446.34
2024-04-12T23:02:49.115Z,97443.75
2024-04-12T23:07:56.236Z,97442.28
2024-04-12T23:13:00.679Z,97456.63
2024-04-12T23:18:05.159Z,97445.16
2024-04-12T23:23:12.283Z,97437.63
2024-04-12T23:28:16.658Z,97443.16
2024-04-12T23:33:21.068Z,97438.22
2024-04-12T23:38:28.062Z,97426.81
2024-04-12T23:43:32.423Z,97423.50
2024-04-12T23:48:37.045Z,97438.25
2024-04-12T23:53:44.109Z,97431.06
2024-04-12T23:58:48.485Z,97418.19
